Wednesday, December 19, 2018, 11:01 AM EST
Back to Local

KAKR, Akron Fulton International

Location: Akron, OH, United States Lat: 41.033
Local Time: 11:01 AM EST (16:01 GMT) Lon: -81.467
Time Zone: US/Eastern Elev: 1069 ft

Show me the last for .
Show Decoded

2018-12-19 09:54 METAR KAKR 191454Z AUTO 10SM CLR 01/M04 A3006 RMK AO2 SLP190 T00111044 50000 =
2018-12-19 08:54 METAR KAKR 191354Z AUTO 15003KT 10SM CLR M01/M05 A3007 RMK AO2 SLP191 T10061050
                 =
2018-12-19 07:54 METAR KAKR 191254Z AUTO 00000KT 10SM CLR M04/M07 A3006 RMK AO2 SLP191 T10391072
                 =
2018-12-19 06:54 METAR KAKR 191154Z AUTO 00000KT 10SM CLR M03/M07 A3006 RMK AO2 SLP190 T10281067
                 11011 21044 56004 =
2018-12-19 05:54 METAR KAKR 191054Z AUTO 00000KT 10SM CLR M02/M06 A3006 RMK AO2 SLP191 T10171056
                 =
2018-12-19 04:54 METAR KAKR 190954Z AUTO 19003KT 10SM CLR M04/M07 A3006 RMK AO2 SLP188 T10391067
                 =
2018-12-19 03:54 METAR KAKR 190854Z AUTO 00000KT 10SM CLR M03/M07 A3007 RMK AO2 SLP193 T10331067
                 58015 =
2018-12-19 02:54 METAR KAKR 190754Z AUTO 00000KT 10SM CLR M02/M06 A3009 RMK AO2 SLP199 T10171056
                 =
2018-12-19 01:54 METAR KAKR 190654Z AUTO 00000KT 10SM CLR M03/M07 A3010 RMK AO2 SLP201 T10331067
                 =
2018-12-19 00:54 METAR KAKR 190554Z AUTO 00000KT 10SM CLR M04/M07 A3012 RMK AO2 SLP208 T10391067
                 10000 21044 58008 =
2018-12-18 23:54 METAR KAKR 190454Z AUTO 00000KT 10SM CLR M03/M06 A3013 RMK AO2 SLP213 T10331061
                 400441039 =
2018-12-18 22:54 METAR KAKR 190354Z AUTO 00000KT 10SM CLR M03/M07 A3013 RMK AO2 SLP215 T10331067
                 =
2018-12-18 21:54 METAR KAKR 190254Z AUTO 00000KT 10SM CLR M03/M06 A3014 RMK AO2 SLP218 T10281061
                 56004 =
2018-12-18 20:54 METAR KAKR 190154Z AUTO 00000KT 10SM CLR M02/M06 A3014 RMK AO2 SLP218 T10221061
                 =
2018-12-18 19:54 METAR KAKR 190054Z AUTO 00000KT 10SM CLR M02/M06 A3014 RMK AO2 SLP216 T10221061
                 =
2018-12-18 18:54 METAR KAKR 182354Z AUTO 00000KT 10SM CLR 00/M06 A3015 RMK AO2 SLP221 T00001056
                 10044 21011 58010 =
2018-12-18 17:54 METAR KAKR 182254Z AUTO 20004KT 10SM CLR 00/M06 A3016 RMK AO2 SLP223 T00001056 =
2018-12-18 16:54 METAR KAKR 182154Z AUTO 21004KT 10SM CLR 02/M06 A3018 RMK AO2 SLP229 T00171056 =
2018-12-18 15:54 METAR KAKR 182054Z AUTO 26003KT 10SM CLR 04/M06 A3018 RMK AO2 SLP229 T00441061
                 55005 =
2018-12-18 14:54 METAR KAKR 181954Z AUTO 00000KT 10SM CLR 04/M06 A3017 RMK AO2 SLP225 T00391061 =
2018-12-18 13:54 METAR KAKR 181854Z AUTO VRB03KT 10SM CLR 03/M06 A3019 RMK AO2 SLP233 T00331056 =
2018-12-18 12:54 METAR KAKR 181754Z AUTO VRB03KT 10SM FEW028 03/M06 A3020 RMK AO2 SLP234
                 T00331056 10039 20000 56015 =
2018-12-18 12:51 METAR KAKR 181751Z AUTO 01004KT 10SM SCT028 03/M06 A3020 RMK AO2 =
2018-12-18 11:54 METAR KAKR 181654Z AUTO 36003KT 10SM BKN028 02/M06 A3022 RMK AO2 SLP244
                 T00171061 =

Support USWX by starting your Amazon purchase here.